sensor_id;sensor_type;location;lat;lon;timestamp;noise_LAeq;noise_LA_min;noise_LA_max;noise_LA01;noise_LA95
69620;Laerm;57654;51.434;5.984;2023-05-10T00:00:04;34.70;32.64;37.94;;
69620;Laerm;57654;51.434;5.984;2023-05-10T00:00:16;34.86;32.62;41.45;;
69620;Laerm;57654;51.434;5.984;2023-05-10T00:00:26;35.51;33.10;51.35;;
69620;Laerm;57654;51.434;5.984;2023-05-10T00:00:36;35.44;32.61;49.52;;
69620;Laerm;57654;51.434;5.984;2023-05-10T00:00:46;36.39;32.97;55.14;;
69620;Laerm;57654;51.434;5.984;2023-05-10T00:00:57;34.73;32.91;38.78;;
69620;Laerm;57654;51.434;5.984;2023-05-10T00:01:07;34.79;32.97;40.95;;
69620;Laerm;57654;51.434;5.984;2023-05-10T00:01:17;35.63;32.69;52.38;;
69620;Laerm;57654;51.434;5.984;2023-05-10T00:01:27;34.68;33.08;40.30;;
69620;Laerm;57654;51.434;5.984;2023-05-10T00:01:38;34.62;32.69;37.71;;
69620;Laerm;57654;51.434;5.984;2023-05-10T00:01:48;35.42;33.37;44.12;;
69620;Laerm;57654;51.434;5.984;2023-05-10T00:01:58;35.28;33.12;45.53;;
69620;Laerm;57654;51.434;5.984;2023-05-10T00:02:08;34.90;32.97;41.17;;
69620;Laerm;57654;51.434;5.984;2023-05-10T00:02:19;35.68;33.02;52.33;;
69620;Laerm;57654;51.434;5.984;2023-05-10T00:02:29;34.73;32.82;41.24;;
69620;Laerm;57654;51.434;5.984;2023-05-10T00:02:39;34.90;33.01;40.13;;
69620;Laerm;57654;51.434;5.984;2023-05-10T00:02:50;35.85;33.36;40.50;;
69620;Laerm;57654;51.434;5.984;2023-05-10T00:03:00;44.52;35.94;49.64;;
69620;Laerm;57654;51.434;5.984;2023-05-10T00:03:11;49.34;46.58;53.82;;
69620;Laerm;57654;51.434;5.984;2023-05-10T00:03:21;50.09;47.66;52.90;;
69620;Laerm;57654;51.434;5.984;2023-05-10T00:03:31;54.79;50.70;57.49;;
69620;Laerm;57654;51.434;5.984;2023-05-10T00:03:42;44.19;34.62;53.61;;
69620;Laerm;57654;51.434;5.984;2023-05-10T00:03:52;35.05;32.95;40.68;;
69620;Laerm;57654;51.434;5.984;2023-05-10T00:04:02;35.24;32.41;51.36;;
69620;Laerm;57654;51.434;5.984;2023-05-10T00:04:13;34.31;32.19;40.30;;
69620;Laerm;57654;51.434;5.984;2023-05-10T00:04:23;35.72;32.55;53.89;;
69620;Laerm;57654;51.434;5.984;2023-05-10T00:04:37;34.49;32.61;38.07;;
69620;Laerm;57654;51.434;5.984;2023-05-10T00:04:47;34.45;32.35;41.86;;
69620;Laerm;57654;51.434;5.984;2023-05-10T00:04:58;35.48;32.53;51.76;;
69620;Laerm;57654;51.434;5.984;2023-05-10T00:05:08;34.82;32.82;45.34;;
69620;Laerm;57654;51.434;5.984;2023-05-10T00:05:19;34.55;32.27;39.34;;
69620;Laerm;57654;51.434;5.984;2023-05-10T00:05:29;35.07;32.52;50.93;;
69620;Laerm;57654;51.434;5.984;2023-05-10T00:05:39;34.06;31.91;36.51;;
69620;Laerm;57654;51.434;5.984;2023-05-10T00:05:49;34.04;32.08;42.33;;
69620;Laerm;57654;51.434;5.984;2023-05-10T00:06:00;35.03;32.15;52.43;;
69620;Laerm;57654;51.434;5.984;2023-05-10T00:06:10;33.81;31.86;39.96;;
69620;Laerm;57654;51.434;5.984;2023-05-10T00:06:20;33.96;31.85;41.67;;
69620;Laerm;57654;51.434;5.984;2023-05-10T00:06:31;33.92;31.72;40.99;;
69620;Laerm;57654;51.434;5.984;2023-05-10T00:06:41;35.44;31.73;54.70;;
69620;Laerm;57654;51.434;5.984;2023-05-10T00:06:51;34.68;31.76;52.07;;
69620;Laerm;57654;51.434;5.984;2023-05-10T00:07:02;33.64;31.43;39.36;;
69620;Laerm;57654;51.434;5.984;2023-05-10T00:07:12;33.99;31.77;37.43;;
69620;Laerm;57654;51.434;5.984;2023-05-10T00:07:23;34.18;31.72;46.19;;
69620;Laerm;57654;51.434;5.984;2023-05-10T00:07:33;34.05;31.14;47.51;;
69620;Laerm;57654;51.434;5.984;2023-05-10T00:07:43;33.45;31.50;38.92;;
69620;Laerm;57654;51.434;5.984;2023-05-10T00:07:54;34.31;31.33;51.53;;
69620;Laerm;57654;51.434;5.984;2023-05-10T00:08:05;37.30;32.01;45.26;;
69620;Laerm;57654;51.434;5.984;2023-05-10T00:08:15;47.87;42.53;49.59;;
69620;Laerm;57654;51.434;5.984;2023-05-10T00:08:25;48.55;46.94;50.44;;
69620;Laerm;57654;51.434;5.984;2023-05-10T00:08:35;47.53;43.64;50.13;;
69620;Laerm;57654;51.434;5.984;2023-05-10T00:08:46;40.57;35.02;45.89;;
69620;Laerm;57654;51.434;5.984;2023-05-10T00:08:56;36.20;33.43;51.89;;
69620;Laerm;57654;51.434;5.984;2023-05-10T00:09:06;34.55;32.30;40.37;;
69620;Laerm;57654;51.434;5.984;2023-05-10T00:09:16;33.87;31.87;38.57;;
69620;Laerm;57654;51.434;5.984;2023-05-10T00:09:27;33.69;31.77;36.76;;
69620;Laerm;57654;51.434;5.984;2023-05-10T00:09:37;33.75;31.86;44.86;;
69620;Laerm;57654;51.434;5.984;2023-05-10T00:09:47;33.70;31.85;40.46;;
69620;Laerm;57654;51.434;5.984;2023-05-10T00:09:57;34.88;31.49;51.89;;
69620;Laerm;57654;51.434;5.984;2023-05-10T00:10:08;33.31;30.53;38.15;;
69620;Laerm;57654;51.434;5.984;2023-05-10T00:10:18;33.31;31.32;40.17;;
69620;Laerm;57654;51.434;5.984;2023-05-10T00:10:28;35.31;31.40;54.50;;
69620;Laerm;57654;51.434;5.984;2023-05-10T00:10:39;33.28;31.28;39.88;;
69620;Laerm;57654;51.434;5.984;2023-05-10T00:10:50;34.94;30.90;53.87;;
69620;Laerm;57654;51.434;5.984;2023-05-10T00:11:00;34.49;31.33;52.72;;
69620;Laerm;57654;51.434;5.984;2023-05-10T00:11:10;33.06;30.93;36.61;;
69620;Laerm;57654;51.434;5.984;2023-05-10T00:11:21;33.10;30.77;38.89;;
69620;Laerm;57654;51.434;5.984;2023-05-10T00:11:31;34.33;30.96;52.33;;
69620;Laerm;57654;51.434;5.984;2023-05-10T00:11:41;33.04;31.06;38.38;;
69620;Laerm;57654;51.434;5.984;2023-05-10T00:11:51;33.19;30.74;44.01;;
69620;Laerm;57654;51.434;5.984;2023-05-10T00:12:02;33.77;30.66;52.37;;
69620;Laerm;57654;51.434;5.984;2023-05-10T00:12:12;32.84;30.74;38.05;;
69620;Laerm;57654;51.434;5.984;2023-05-10T00:12:22;32.77;30.47;37.18;;
69620;Laerm;57654;51.434;5.984;2023-05-10T00:12:33;32.89;30.84;37.07;;
69620;Laerm;57654;51.434;5.984;2023-05-10T00:12:43;32.82;30.95;35.79;;
69620;Laerm;57654;51.434;5.984;2023-05-10T00:12:53;32.97;31.05;39.72;;
69620;Laerm;57654;51.434;5.984;2023-05-10T00:13:03;32.89;30.57;38.98;;
69620;Laerm;57654;51.434;5.984;2023-05-10T00:13:14;34.22;30.51;52.33;;
69620;Laerm;57654;51.434;5.984;2023-05-10T00:13:24;32.85;30.50;37.97;;
69620;Laerm;57654;51.434;5.984;2023-05-10T00:13:34;32.79;30.79;37.65;;
69620;Laerm;57654;51.434;5.984;2023-05-10T00:13:44;33.04;30.93;39.15;;
69620;Laerm;57654;51.434;5.984;2023-05-10T00:13:55;32.96;30.86;38.42;;
69620;Laerm;57654;51.434;5.984;2023-05-10T00:14:05;33.52;31.42;39.67;;
69620;Laerm;57654;51.434;5.984;2023-05-10T00:14:16;35.06;32.20;52.98;;
69620;Laerm;57654;51.434;5.984;2023-05-10T00:14:26;38.45;32.97;45.49;;
69620;Laerm;57654;51.434;5.984;2023-05-10T00:14:37;49.94;43.12;52.94;;
69620;Laerm;57654;51.434;5.984;2023-05-10T00:14:47;51.51;48.95;56.58;;
69620;Laerm;57654;51.434;5.984;2023-05-10T00:14:57;47.64;44.02;51.04;;
69620;Laerm;57654;51.434;5.984;2023-05-10T00:15:08;39.19;31.35;45.55;;
69620;Laerm;57654;51.434;5.984;2023-05-10T00:15:18;33.40;30.76;38.83;;
69620;Laerm;57654;51.434;5.984;2023-05-10T00:15:28;34.11;30.85;52.46;;
69620;Laerm;57654;51.434;5.984;2023-05-10T00:15:40;32.73;30.08;37.36;;
69620;Laerm;57654;51.434;5.984;2023-05-10T00:15:50;32.78;30.49;37.36;;
69620;Laerm;57654;51.434;5.984;2023-05-10T00:16:01;32.83;30.03;38.33;;
69620;Laerm;57654;51.434;5.984;2023-05-10T00:16:11;32.98;30.63;40.49;;
69620;Laerm;57654;51.434;5.984;2023-05-10T00:16:23;32.78;30.60;36.39;;
69620;Laerm;57654;51.434;5.984;2023-05-10T00:16:33;34.43;30.34;52.47;;
69620;Laerm;57654;51.434;5.984;2023-05-10T00:16:43;32.71;30.63;38.73;;
69620;Laerm;57654;51.434;5.984;2023-05-10T00:16:53;32.71;30.78;39.61;;
69620;Laerm;57654;51.434;5.984;2023-05-10T00:17:04;32.72;30.71;36.68;;
69620;Laerm;57654;51.434;5.984;2023-05-10T00:17:14;32.69;30.44;40.66;;
69620;Laerm;57654;51.434;5.984;2023-05-10T00:17:24;32.62;30.37;38.50;;
69620;Laerm;57654;51.434;5.984;2023-05-10T00:17:35;32.93;30.51;44.81;;
69620;Laerm;57654;51.434;5.984;2023-05-10T00:17:45;33.86;30.55;52.14;;
69620;Laerm;57654;51.434;5.984;2023-05-10T00:17:55;33.22;31.06;39.52;;
69620;Laerm;57654;51.434;5.984;2023-05-10T00:18:05;33.56;31.00;36.90;;
69620;Laerm;57654;51.434;5.984;2023-05-10T00:18:16;41.01;33.10;47.69;;
69620;Laerm;57654;51.434;5.984;2023-05-10T00:18:26;49.08;45.44;51.02;;
69620;Laerm;57654;51.434;5.984;2023-05-10T00:18:36;46.69;44.35;50.24;;
69620;Laerm;57654;51.434;5.984;2023-05-10T00:18:47;42.12;32.79;47.42;;
69620;Laerm;57654;51.434;5.984;2023-05-10T00:18:57;34.34;30.80;52.63;;
69620;Laerm;57654;51.434;5.984;2023-05-10T00:19:07;32.52;30.55;36.91;;
69620;Laerm;57654;51.434;5.984;2023-05-10T00:19:18;32.57;30.52;39.54;;
69620;Laerm;57654;51.434;5.984;2023-05-10T00:19:28;32.59;29.99;41.53;;
69620;Laerm;57654;51.434;5.984;2023-05-10T00:19:38;34.83;30.27;55.27;;
69620;Laerm;57654;51.434;5.984;2023-05-10T00:19:48;32.33;30.65;35.99;;
69620;Laerm;57654;51.434;5.984;2023-05-10T00:19:59;32.58;30.44;42.13;;
69620;Laerm;57654;51.434;5.984;2023-05-10T00:20:09;33.87;30.40;52.00;;
69620;Laerm;57654;51.434;5.984;2023-05-10T00:20:20;32.51;30.29;36.32;;
69620;Laerm;57654;51.434;5.984;2023-05-10T00:20:30;32.49;30.32;37.98;;
69620;Laerm;57654;51.434;5.984;2023-05-10T00:20:40;32.37;29.41;36.33;;
69620;Laerm;57654;51.434;5.984;2023-05-10T00:20:51;32.66;30.47;36.50;;
69620;Laerm;57654;51.434;5.984;2023-05-10T00:21:01;34.38;30.58;53.87;;
69620;Laerm;57654;51.434;5.984;2023-05-10T00:21:11;32.93;30.78;39.19;;
69620;Laerm;57654;51.434;5.984;2023-05-10T00:21:21;34.98;31.13;53.26;;
69620;Laerm;57654;51.434;5.984;2023-05-10T00:21:32;36.83;32.74;42.47;;
69620;Laerm;57654;51.434;5.984;2023-05-10T00:21:43;53.54;40.56;57.57;;
69620;Laerm;57654;51.434;5.984;2023-05-10T00:21:53;55.94;53.81;59.11;;
69620;Laerm;57654;51.434;5.984;2023-05-10T00:22:04;49.96;35.10;56.25;;
69620;Laerm;57654;51.434;5.984;2023-05-10T00:22:14;33.78;30.35;40.62;;
69620;Laerm;57654;51.434;5.984;2023-05-10T00:22:24;32.52;30.51;37.59;;
69620;Laerm;57654;51.434;5.984;2023-05-10T00:22:34;33.82;30.54;51.91;;
69620;Laerm;57654;51.434;5.984;2023-05-10T00:22:45;32.59;30.34;39.60;;
69620;Laerm;57654;51.434;5.984;2023-05-10T00:22:55;32.42;29.99;40.88;;
69620;Laerm;57654;51.434;5.984;2023-05-10T00:23:05;32.02;29.77;36.25;;
69620;Laerm;57654;51.434;5.984;2023-05-10T00:23:16;32.15;29.85;38.42;;
69620;Laerm;57654;51.434;5.984;2023-05-10T00:23:26;32.27;30.09;37.65;;
69620;Laerm;57654;51.434;5.984;2023-05-10T00:23:36;32.27;30.16;35.99;;
69620;Laerm;57654;51.434;5.984;2023-05-10T00:23:47;32.10;29.95;36.36;;
69620;Laerm;57654;51.434;5.984;2023-05-10T00:23:57;33.60;30.23;52.34;;
69620;Laerm;57654;51.434;5.984;2023-05-10T00:24:07;32.28;30.25;37.44;;
69620;Laerm;57654;51.434;5.984;2023-05-10T00:24:18;32.31;30.21;38.13;;
69620;Laerm;57654;51.434;5.984;2023-05-10T00:24:28;32.37;30.14;39.51;;
69620;Laerm;57654;51.434;5.984;2023-05-10T00:24:38;34.56;29.98;55.19;;
69620;Laerm;57654;51.434;5.984;2023-05-10T00:24:49;32.42;30.24;37.38;;
69620;Laerm;57654;51.434;5.984;2023-05-10T00:24:59;32.46;30.24;39.43;;
69620;Laerm;57654;51.434;5.984;2023-05-10T00:25:09;33.04;30.55;39.83;;
69620;Laerm;57654;51.434;5.984;2023-05-10T00:25:20;45.17;33.12;52.39;;
69620;Laerm;57654;51.434;5.984;2023-05-10T00:25:31;48.12;46.34;50.19;;
69620;Laerm;57654;51.434;5.984;2023-05-10T00:25:41;46.43;40.40;50.65;;
69620;Laerm;57654;51.434;5.984;2023-05-10T00:25:52;37.60;33.01;41.72;;
69620;Laerm;57654;51.434;5.984;2023-05-10T00:26:02;34.34;31.86;44.11;;
69620;Laerm;57654;51.434;5.984;2023-05-10T00:26:12;33.03;30.85;37.17;;
69620;Laerm;57654;51.434;5.984;2023-05-10T00:26:23;32.63;30.38;37.83;;
69620;Laerm;57654;51.434;5.984;2023-05-10T00:26:33;33.74;30.17;52.54;;
69620;Laerm;57654;51.434;5.984;2023-05-10T00:26:43;32.40;30.44;35.87;;
69620;Laerm;57654;51.434;5.984;2023-05-10T00:26:54;32.38;30.37;40.08;;
69620;Laerm;57654;51.434;5.984;2023-05-10T00:27:04;32.67;30.14;37.83;;
69620;Laerm;57654;51.434;5.984;2023-05-10T00:27:14;32.25;29.63;36.75;;
69620;Laerm;57654;51.434;5.984;2023-05-10T00:27:25;32.40;30.14;41.29;;
69620;Laerm;57654;51.434;5.984;2023-05-10T00:27:35;32.97;29.99;46.66;;
69620;Laerm;57654;51.434;5.984;2023-05-10T00:27:45;32.75;29.89;45.61;;
69620;Laerm;57654;51.434;5.984;2023-05-10T00:27:55;33.76;30.19;52.63;;
69620;Laerm;57654;51.434;5.984;2023-05-10T00:28:07;32.20;29.78;38.10;;
69620;Laerm;57654;51.434;5.984;2023-05-10T00:28:17;32.85;29.90;47.62;;
69620;Laerm;57654;51.434;5.984;2023-05-10T00:28:27;32.12;29.72;36.55;;
69620;Laerm;57654;51.434;5.984;2023-05-10T00:28:38;32.31;29.95;38.38;;
69620;Laerm;57654;51.434;5.984;2023-05-10T00:28:48;32.03;29.76;36.79;;
69620;Laerm;57654;51.434;5.984;2023-05-10T00:28:59;32.08;29.96;40.84;;
69620;Laerm;57654;51.434;5.984;2023-05-10T00:29:09;32.13;29.98;36.05;;
69620;Laerm;57654;51.434;5.984;2023-05-10T00:29:20;32.16;29.96;40.11;;
69620;Laerm;57654;51.434;5.984;2023-05-10T00:29:30;33.72;29.69;52.54;;
69620;Laerm;57654;51.434;5.984;2023-05-10T00:29:41;32.49;30.41;38.06;;
69620;Laerm;57654;51.434;5.984;2023-05-10T00:29:52;32.63;30.74;37.28;;
69620;Laerm;57654;51.434;5.984;2023-05-10T00:30:02;32.88;30.80;36.75;;
69620;Laerm;57654;51.434;5.984;2023-05-10T00:30:12;34.83;30.22;55.63;;
69620;Laerm;57654;51.434;5.984;2023-05-10T00:30:23;32.18;30.09;36.43;;
69620;Laerm;57654;51.434;5.984;2023-05-10T00:30:33;32.08;30.10;35.41;;
69620;Laerm;57654;51.434;5.984;2023-05-10T00:30:43;32.42;30.20;40.88;;
69620;Laerm;57654;51.434;5.984;2023-05-10T00:30:54;34.14;30.36;53.30;;
69620;Laerm;57654;51.434;5.984;2023-05-10T00:31:04;32.66;30.45;37.60;;
69620;Laerm;57654;51.434;5.984;2023-05-10T00:31:14;32.84;30.85;36.47;;
69620;Laerm;57654;51.434;5.984;2023-05-10T00:31:24;33.86;31.41;39.79;;
69620;Laerm;57654;51.434;5.984;2023-05-10T00:31:35;40.07;32.84;47.50;;
69620;Laerm;57654;51.434;5.984;2023-05-10T00:31:45;51.40;46.18;54.27;;
69620;Laerm;57654;51.434;5.984;2023-05-10T00:31:56;54.25;51.54;57.17;;
69620;Laerm;57654;51.434;5.984;2023-05-10T00:32:06;53.39;46.14;56.58;;
69620;Laerm;57654;51.434;5.984;2023-05-10T00:32:16;39.70;31.73;46.78;;
69620;Laerm;57654;51.434;5.984;2023-05-10T00:32:26;33.92;30.21;51.12;;
69620;Laerm;57654;51.434;5.984;2023-05-10T00:32:37;32.14;29.89;36.75;;
69620;Laerm;57654;51.434;5.984;2023-05-10T00:32:47;32.34;30.04;37.56;;
69620;Laerm;57654;51.434;5.984;2023-05-10T00:32:59;32.25;29.98;38.52;;
69620;Laerm;57654;51.434;5.984;2023-05-10T00:33:10;31.89;29.57;35.82;;
69620;Laerm;57654;51.434;5.984;2023-05-10T00:33:21;31.95;29.81;35.26;;
69620;Laerm;57654;51.434;5.984;2023-05-10T00:33:32;32.20;29.92;39.05;;
69620;Laerm;57654;51.434;5.984;2023-05-10T00:33:42;31.80;29.30;40.44;;
69620;Laerm;57654;51.434;5.984;2023-05-10T00:33:52;33.53;30.03;53.24;;
69620;Laerm;57654;51.434;5.984;2023-05-10T00:34:02;31.80;29.26;36.85;;
69620;Laerm;57654;51.434;5.984;2023-05-10T00:34:13;31.82;29.67;36.31;;
69620;Laerm;57654;51.434;5.984;2023-05-10T00:34:23;32.67;29.65;50.28;;
69620;Laerm;57654;51.434;5.984;2023-05-10T00:34:34;32.06;29.98;36.95;;
69620;Laerm;57654;51.434;5.984;2023-05-10T00:34:44;32.34;30.20;42.85;;
69620;Laerm;57654;51.434;5.984;2023-05-10T00:34:55;32.26;29.94;38.61;;
69620;Laerm;57654;51.434;5.984;2023-05-10T00:35:05;32.13;29.92;39.68;;
69620;Laerm;57654;51.434;5.984;2023-05-10T00:35:15;32.05;29.60;37.49;;
69620;Laerm;57654;51.434;5.984;2023-05-10T00:35:26;33.68;29.69;53.03;;
69620;Laerm;57654;51.434;5.984;2023-05-10T00:35:36;32.03;29.88;39.70;;
69620;Laerm;57654;51.434;5.984;2023-05-10T00:35:47;32.21;30.00;36.71;;
69620;Laerm;57654;51.434;5.984;2023-05-10T00:35:58;32.22;29.72;38.79;;
69620;Laerm;57654;51.434;5.984;2023-05-10T00:36:08;34.82;29.99;55.69;;
69620;Laerm;57654;51.434;5.984;2023-05-10T00:36:18;32.47;30.32;37.52;;
69620;Laerm;57654;51.434;5.984;2023-05-10T00:36:29;32.28;29.95;36.99;;
69620;Laerm;57654;51.434;5.984;2023-05-10T00:36:39;32.16;30.00;35.89;;
69620;Laerm;57654;51.434;5.984;2023-05-10T00:36:49;32.39;30.31;38.58;;
69620;Laerm;57654;51.434;5.984;2023-05-10T00:36:59;34.26;30.23;54.26;;
69620;Laerm;57654;51.434;5.984;2023-05-10T00:37:10;32.34;29.92;37.23;;
69620;Laerm;57654;51.434;5.984;2023-05-10T00:37:20;32.19;29.78;35.86;;
69620;Laerm;57654;51.434;5.984;2023-05-10T00:37:30;32.33;30.01;38.58;;
69620;Laerm;57654;51.434;5.984;2023-05-10T00:37:41;31.93;30.25;35.36;;
69620;Laerm;57654;51.434;5.984;2023-05-10T00:37:51;32.17;29.70;39.02;;
69620;Laerm;57654;51.434;5.984;2023-05-10T00:38:01;32.05;29.91;41.45;;
69620;Laerm;57654;51.434;5.984;2023-05-10T00:38:11;32.34;29.79;37.81;;
69620;Laerm;57654;51.434;5.984;2023-05-10T00:38:21;32.25;29.98;38.94;;
69620;Laerm;57654;51.434;5.984;2023-05-10T00:38:32;32.03;29.95;36.45;;
69620;Laerm;57654;51.434;5.984;2023-05-10T00:38:42;33.84;29.93;53.63;;
69620;Laerm;57654;51.434;5.984;2023-05-10T00:38:52;32.43;30.05;36.57;;
69620;Laerm;57654;51.434;5.984;2023-05-10T00:39:03;32.13;29.91;36.26;;
69620;Laerm;57654;51.434;5.984;2023-05-10T00:39:13;32.40;30.30;39.86;;
69620;Laerm;57654;51.434;5.984;2023-05-10T00:39:23;32.25;30.10;35.83;;
69620;Laerm;57654;51.434;5.984;2023-05-10T00:39:34;31.89;29.86;35.06;;
69620;Laerm;57654;51.434;5.984;2023-05-10T00:39:44;31.81;29.83;36.16;;
69620;Laerm;57654;51.434;5.984;2023-05-10T00:39:54;32.17;30.08;36.66;;
69620;Laerm;57654;51.434;5.984;2023-05-10T00:40:05;31.93;29.69;35.87;;
69620;Laerm;57654;51.434;5.984;2023-05-10T00:40:15;31.76;29.68;38.05;;
69620;Laerm;57654;51.434;5.984;2023-05-10T00:40:26;34.01;29.83;53.96;;
69620;Laerm;57654;51.434;5.984;2023-05-10T00:40:36;31.97;29.87;36.90;;
69620;Laerm;57654;51.434;5.984;2023-05-10T00:40:50;31.83;29.52;40.76;;
69620;Laerm;57654;51.434;5.984;2023-05-10T00:41:00;31.86;29.63;37.03;;
69620;Laerm;57654;51.434;5.984;2023-05-10T00:41:10;31.86;29.85;37.00;;
69620;Laerm;57654;51.434;5.984;2023-05-10T00:41:20;31.92;29.40;36.29;;
69620;Laerm;57654;51.434;5.984;2023-05-10T00:41:31;31.78;29.83;36.35;;
69620;Laerm;57654;51.434;5.984;2023-05-10T00:41:42;31.75;29.79;37.00;;
69620;Laerm;57654;51.434;5.984;2023-05-10T00:41:52;34.57;29.47;56.07;;
69620;Laerm;57654;51.434;5.984;2023-05-10T00:42:03;32.15;29.58;38.74;;
69620;Laerm;57654;51.434;5.984;2023-05-10T00:42:14;33.58;29.63;52.93;;
69620;Laerm;57654;51.434;5.984;2023-05-10T00:42:24;32.02;29.57;42.47;;
69620;Laerm;57654;51.434;5.984;2023-05-10T00:42:35;31.89;29.66;36.61;;
69620;Laerm;57654;51.434;5.984;2023-05-10T00:42:45;31.72;29.69;36.05;;
69620;Laerm;57654;51.434;5.984;2023-05-10T00:42:55;32.06;29.78;40.40;;
69620;Laerm;57654;51.434;5.984;2023-05-10T00:43:05;31.77;29.47;36.13;;
69620;Laerm;57654;51.434;5.984;2023-05-10T00:43:16;31.75;29.33;38.55;;
69620;Laerm;57654;51.434;5.984;2023-05-10T00:43:26;31.99;29.38;36.75;;
69620;Laerm;57654;51.434;5.984;2023-05-10T00:43:36;31.85;29.58;40.22;;
69620;Laerm;57654;51.434;5.984;2023-05-10T00:43:47;31.99;29.76;38.05;;
69620;Laerm;57654;51.434;5.984;2023-05-10T00:43:57;33.78;29.58;53.80;;
69620;Laerm;57654;51.434;5.984;2023-05-10T00:44:07;31.75;29.57;37.22;;
69620;Laerm;57654;51.434;5.984;2023-05-10T00:44:17;31.98;29.82;36.84;;
69620;Laerm;57654;51.434;5.984;2023-05-10T00:44:28;31.65;29.67;37.86;;
69620;Laerm;57654;51.434;5.984;2023-05-10T00:44:38;31.98;29.74;38.35;;
69620;Laerm;57654;51.434;5.984;2023-05-10T00:44:49;31.85;29.93;36.23;;
69620;Laerm;57654;51.434;5.984;2023-05-10T00:44:59;32.60;29.80;39.66;;
69620;Laerm;57654;51.434;5.984;2023-05-10T00:45:09;43.72;32.27;49.22;;
69620;Laerm;57654;51.434;5.984;2023-05-10T00:45:19;49.61;47.40;54.48;;
69620;Laerm;57654;51.434;5.984;2023-05-10T00:45:30;52.76;47.82;55.29;;
69620;Laerm;57654;51.434;5.984;2023-05-10T00:45:41;42.94;34.61;49.40;;
69620;Laerm;57654;51.434;5.984;2023-05-10T00:45:52;37.08;33.73;53.17;;
69620;Laerm;57654;51.434;5.984;2023-05-10T00:46:03;33.66;30.82;38.60;;
69620;Laerm;57654;51.434;5.984;2023-05-10T00:46:14;33.00;30.55;39.21;;
69620;Laerm;57654;51.434;5.984;2023-05-10T00:46:25;32.35;30.37;36.50;;
69620;Laerm;57654;51.434;5.984;2023-05-10T00:46:35;32.35;30.08;40.37;;
69620;Laerm;57654;51.434;5.984;2023-05-10T00:46:46;32.31;30.11;39.00;;
69620;Laerm;57654;51.434;5.984;2023-05-10T00:46:57;32.27;30.38;37.86;;
69620;Laerm;57654;51.434;5.984;2023-05-10T00:47:07;32.55;30.43;39.41;;
69620;Laerm;57654;51.434;5.984;2023-05-10T00:47:18;31.98;29.82;37.80;;
69620;Laerm;57654;51.434;5.984;2023-05-10T00:47:28;32.20;29.85;38.89;;
69620;Laerm;57654;51.434;5.984;2023-05-10T00:47:39;31.82;29.26;35.32;;
69620;Laerm;57654;51.434;5.984;2023-05-10T00:47:49;33.42;29.64;53.15;;
69620;Laerm;57654;51.434;5.984;2023-05-10T00:48:03;32.08;29.85;37.34;;
69620;Laerm;57654;51.434;5.984;2023-05-10T00:48:14;34.12;29.60;56.22;;
69620;Laerm;57654;51.434;5.984;2023-05-10T00:48:24;31.71;29.15;35.75;;
69620;Laerm;57654;51.434;5.984;2023-05-10T00:48:34;31.71;29.27;35.83;;
69620;Laerm;57654;51.434;5.984;2023-05-10T00:48:45;33.12;29.67;51.77;;
69620;Laerm;57654;51.434;5.984;2023-05-10T00:48:55;31.86;29.69;37.16;;
69620;Laerm;57654;51.434;5.984;2023-05-10T00:49:05;31.64;29.49;36.51;;
69620;Laerm;57654;51.434;5.984;2023-05-10T00:49:16;32.08;29.28;39.59;;
69620;Laerm;57654;51.434;5.984;2023-05-10T00:49:26;32.03;29.34;37.80;;
69620;Laerm;57654;51.434;5.984;2023-05-10T00:49:37;31.74;29.44;38.12;;
69620;Laerm;57654;51.434;5.984;2023-05-10T00:49:47;33.44;29.61;53.38;;
69620;Laerm;57654;51.434;5.984;2023-05-10T00:49:58;31.74;29.39;35.98;;
69620;Laerm;57654;51.434;5.984;2023-05-10T00:50:08;31.47;28.93;37.63;;
69620;Laerm;57654;51.434;5.984;2023-05-10T00:50:19;31.81;29.52;38.60;;
69620;Laerm;57654;51.434;5.984;2023-05-10T00:50:30;31.88;29.43;38.76;;
69620;Laerm;57654;51.434;5.984;2023-05-10T00:50:40;31.76;29.21;39.06;;
69620;Laerm;57654;51.434;5.984;2023-05-10T00:50:51;31.82;29.38;36.09;;
69620;Laerm;57654;51.434;5.984;2023-05-10T00:51:01;31.96;29.37;39.12;;
69620;Laerm;57654;51.434;5.984;2023-05-10T00:51:12;31.71;29.45;36.46;;
69620;Laerm;57654;51.434;5.984;2023-05-10T00:51:22;31.95;29.68;37.41;;
69620;Laerm;57654;51.434;5.984;2023-05-10T00:51:32;33.35;30.35;36.90;;
69620;Laerm;57654;51.434;5.984;2023-05-10T00:51:42;49.56;34.74;53.53;;
69620;Laerm;57654;51.434;5.984;2023-05-10T00:51:54;54.69;52.44;56.91;;
69620;Laerm;57654;51.434;5.984;2023-05-10T00:52:04;52.36;44.25;56.14;;
69620;Laerm;57654;51.434;5.984;2023-05-10T00:52:15;39.59;35.34;45.71;;
69620;Laerm;57654;51.434;5.984;2023-05-10T00:52:25;35.76;33.32;38.93;;
69620;Laerm;57654;51.434;5.984;2023-05-10T00:52:36;33.71;31.25;38.41;;
69620;Laerm;57654;51.434;5.984;2023-05-10T00:52:46;32.25;30.42;35.82;;
69620;Laerm;57654;51.434;5.984;2023-05-10T00:52:57;32.43;30.55;37.04;;
69620;Laerm;57654;51.434;5.984;2023-05-10T00:53:08;32.22;30.09;37.19;;
69620;Laerm;57654;51.434;5.984;2023-05-10T00:53:18;32.17;30.27;38.39;;
69620;Laerm;57654;51.434;5.984;2023-05-10T00:53:30;32.40;30.49;35.65;;
69620;Laerm;57654;51.434;5.984;2023-05-10T00:53:41;32.22;30.14;35.69;;
69620;Laerm;57654;51.434;5.984;2023-05-10T00:53:51;31.82;29.76;37.40;;
69620;Laerm;57654;51.434;5.984;2023-05-10T00:54:02;33.44;29.65;53.40;;
69620;Laerm;57654;51.434;5.984;2023-05-10T00:54:14;31.93;29.90;36.98;;
69620;Laerm;57654;51.434;5.984;2023-05-10T00:54:24;34.31;29.52;56.21;;
69620;Laerm;57654;51.434;5.984;2023-05-10T00:54:35;31.50;29.56;37.81;;
69620;Laerm;57654;51.434;5.984;2023-05-10T00:54:46;31.95;29.13;39.33;;
69620;Laerm;57654;51.434;5.984;2023-05-10T00:54:57;31.62;29.51;36.80;;
69620;Laerm;57654;51.434;5.984;2023-05-10T00:55:09;31.98;29.30;36.59;;
69620;Laerm;57654;51.434;5.984;2023-05-10T00:55:19;32.31;29.21;39.92;;
69620;Laerm;57654;51.434;5.984;2023-05-10T00:55:29;32.23;29.43;38.26;;
69620;Laerm;57654;51.434;5.984;2023-05-10T00:55:40;32.13;29.47;38.20;;
69620;Laerm;57654;51.434;5.984;2023-05-10T00:55:50;31.68;29.46;39.46;;
69620;Laerm;57654;51.434;5.984;2023-05-10T00:56:01;31.67;29.60;36.69;;
69620;Laerm;57654;51.434;5.984;2023-05-10T00:56:11;31.80;29.24;37.51;;
69620;Laerm;57654;51.434;5.984;2023-05-10T00:56:22;33.41;29.43;53.56;;
69620;Laerm;57654;51.434;5.984;2023-05-10T00:56:34;31.62;29.57;36.48;;
69620;Laerm;57654;51.434;5.984;2023-05-10T00:56:44;31.64;29.52;35.29;;
69620;Laerm;57654;51.434;5.984;2023-05-10T00:56:59;31.92;29.65;39.43;;
69620;Laerm;57654;51.434;5.984;2023-05-10T00:57:09;31.91;29.58;39.41;;
69620;Laerm;57654;51.434;5.984;2023-05-10T00:57:20;31.67;29.26;37.78;;
69620;Laerm;57654;51.434;5.984;2023-05-10T00:57:30;31.88;29.54;39.60;;
69620;Laerm;57654;51.434;5.984;2023-05-10T00:57:41;31.73;29.33;37.39;;
69620;Laerm;57654;51.434;5.984;2023-05-10T00:57:52;31.61;29.20;37.81;;
69620;Laerm;57654;51.434;5.984;2023-05-10T00:58:03;31.64;29.17;36.47;;
69620;Laerm;57654;51.434;5.984;2023-05-10T00:58:14;31.81;29.35;38.33;;
69620;Laerm;57654;51.434;5.984;2023-05-10T00:58:24;31.62;29.22;36.37;;
69620;Laerm;57654;51.434;5.984;2023-05-10T00:58:38;31.68;29.60;40.51;;